Terminal Aerodrome Forecast
Issued by NWS Northern Indiana

Home | Current Version | Previous Version | Text Only | Print | Product List | Glossary Off
Versions: 1 2 3 4 5 6 7 8 9 10 11 12 13 14 15 16 17

328
FTUS43 KIWX 172334
TAFFWA
TAF
KFWA 172334Z 1800/1824 25013KT 4SM -DZ BR OVC004
      TEMPO 1804/1808 2SM -SHRA BR OVC003
     FM181700 26008KT P6SM OVC010=

USA.gov is the U.S. government's official web portal to all federal, state and local government web resources and services.